Time,TemperatureF,DewpointF,PressureIn,WindDirection,WindDirectionDegrees,WindSpeedMPH,WindSpeedGustMPH,Humidity,HourlyPrecipIn,Conditions,Clouds,dailyrainin,SoftwareType,DateUTC
2013-09-16 00:02:00,66.4,64.0,30.01,ENE,68,2.0,5.0,92,0.00,,,0.00,meteohub,2013-09-15 22:02:00,
2013-09-16 00:18:00,66.2,63.9,30.01,ENE,68,2.0,4.0,92,0.00,,,0.00,meteohub,2013-09-15 22:18:00,
2013-09-16 00:52:00,65.8,63.7,30.01,ENE,68,2.0,5.0,93,0.00,,,0.00,meteohub,2013-09-15 22:52:00,
2013-09-16 01:08:00,65.8,63.7,30.01,NE,45,2.0,4.0,93,0.00,,,0.00,meteohub,2013-09-15 23:08:00,
2013-09-16 01:23:00,65.8,64.0,30.01,NE,45,1.0,4.0,94,0.00,,,0.00,meteohub,2013-09-15 23:23:00,
2013-09-16 01:39:00,66.0,64.2,30.01,NE,45,1.0,4.0,94,0.00,,,0.00,meteohub,2013-09-15 23:39:00,
2013-09-16 01:55:00,66.0,64.2,30.00,NE,45,2.0,4.0,94,0.00,,,0.00,meteohub,2013-09-15 23:55:00,
2013-09-16 02:10:00,65.8,63.7,30.00,NE,45,1.0,3.0,93,0.00,,,0.00,meteohub,2013-09-16 00:10:00,
2013-09-16 02:27:00,65.7,63.9,29.99,NE,45,2.0,3.0,94,0.00,,,0.00,meteohub,2013-09-16 00:27:00,
2013-09-16 02:42:00,65.5,63.7,29.99,NE,45,2.0,3.0,94,0.00,,,0.00,meteohub,2013-09-16 00:42:00,
2013-09-16 02:57:00,65.1,63.3,29.99,NE,45,0.0,2.0,94,0.00,,,0.00,meteohub,2013-09-16 00:57:00,
2013-09-16 03:12:00,65.1,63.7,29.98,NE,45,0.0,1.0,95,0.00,,,0.00,meteohub,2013-09-16 01:12:00,
2013-09-16 03:28:00,64.9,63.5,29.98,NE,45,0.0,1.0,95,0.00,,,0.00,meteohub,2013-09-16 01:28:00,
2013-09-16 03:44:00,65.1,63.7,29.98,NE,45,1.0,2.0,95,0.00,,,0.00,meteohub,2013-09-16 01:44:00,
2013-09-16 04:00:00,64.9,63.5,29.98,NE,45,0.0,0.0,95,0.00,,,0.00,meteohub,2013-09-16 02:00:00,
2013-09-16 04:15:00,64.8,63.0,29.97,NE,45,1.0,3.0,94,0.00,,,0.00,meteohub,2013-09-16 02:15:00,
2013-09-16 04:31:00,64.8,63.0,29.97,NE,45,1.0,2.0,94,0.00,,,0.00,meteohub,2013-09-16 02:31:00,
2013-09-16 04:46:00,64.2,62.4,29.97,NE,45,0.0,1.0,94,0.00,,,0.00,meteohub,2013-09-16 02:46:00,
2013-09-16 05:01:00,64.0,62.2,29.97,NE,45,0.0,1.0,94,0.00,,,0.00,meteohub,2013-09-16 03:01:00,
2013-09-16 05:17:00,63.7,62.2,29.96,NE,45,0.0,2.0,95,0.00,,,0.00,meteohub,2013-09-16 03:17:00,
2013-09-16 05:33:00,63.7,62.2,29.96,NE,45,0.0,1.0,95,0.00,,,0.00,meteohub,2013-09-16 03:33:00,
2013-09-16 05:48:00,63.7,62.2,29.96,NE,45,0.0,2.0,95,0.00,,,0.00,meteohub,2013-09-16 03:48:00,
2013-09-16 06:03:00,63.9,62.4,29.95,NE,45,1.0,3.0,95,0.00,,,0.00,meteohub,2013-09-16 04:03:00,
2013-09-16 06:18:00,63.7,62.2,29.95,NE,45,0.0,1.0,95,0.00,,,0.00,meteohub,2013-09-16 04:18:00,
2013-09-16 06:34:00,63.3,61.9,29.95,NE,45,0.0,2.0,95,0.00,,,0.00,meteohub,2013-09-16 04:34:00,
2013-09-16 06:50:00,63.1,61.5,29.95,NE,45,0.0,1.0,94,0.00,,,0.00,meteohub,2013-09-16 04:50:00,
2013-09-16 07:05:00,62.8,61.3,29.95,NE,45,1.0,2.0,95,0.01,,,0.01,meteohub,2013-09-16 05:05:00,
2013-09-16 07:21:00,63.0,61.5,29.95,NE,45,0.0,1.0,95,0.01,,,0.01,meteohub,2013-09-16 05:21:00,
2013-09-16 07:36:00,63.3,61.9,29.95,NE,45,0.0,1.0,95,0.01,,,0.01,meteohub,2013-09-16 05:36:00,
2013-09-16 07:52:00,63.5,62.1,29.96,NE,45,0.0,1.0,95,0.00,,,0.01,meteohub,2013-09-16 05:52:00,
2013-09-16 08:07:00,63.9,62.4,29.96,NE,45,0.0,1.0,95,0.00,,,0.01,meteohub,2013-09-16 06:07:00,
2013-09-16 08:22:00,63.9,62.4,29.96,NE,45,0.0,0.0,95,0.00,,,0.01,meteohub,2013-09-16 06:22:00,
2013-09-16 08:38:00,64.6,63.1,29.96,NE,45,1.0,2.0,95,0.00,,,0.01,meteohub,2013-09-16 06:38:00,
2013-09-16 08:53:00,66.0,64.2,29.95,NE,45,1.0,4.0,94,0.00,,,0.01,meteohub,2013-09-16 06:53:00,
2013-09-16 09:09:00,66.7,64.4,29.96,NE,45,1.0,3.0,92,0.00,,,0.01,meteohub,2013-09-16 07:09:00,
2013-09-16 09:24:00,68.4,64.8,29.96,NE,45,1.0,3.0,88,0.00,,,0.01,meteohub,2013-09-16 07:24:00,
2013-09-16 09:39:00,68.4,64.6,29.96,NE,45,1.0,2.0,88,0.00,,,0.01,meteohub,2013-09-16 07:39:00,
2013-09-16 09:55:00,69.4,65.5,29.96,NE,45,0.0,1.0,86,0.00,,,0.01,meteohub,2013-09-16 07:55:00,
2013-09-16 10:10:00,70.3,65.3,29.96,NE,45,0.0,1.0,84,0.00,,,0.01,meteohub,2013-09-16 08:10:00,
2013-09-16 10:25:00,72.1,66.0,29.96,NE,45,0.0,3.0,81,0.00,,,0.01,meteohub,2013-09-16 08:25:00,
2013-09-16 10:41:00,72.9,66.2,29.96,WSW,248,3.0,5.0,79,0.00,,,0.01,meteohub,2013-09-16 08:41:00,
2013-09-16 10:56:00,72.3,65.8,29.96,WSW,248,3.0,5.0,80,0.00,,,0.01,meteohub,2013-09-16 08:56:00,
2013-09-16 11:11:00,72.3,65.5,29.96,SW,225,1.0,4.0,79,0.00,,,0.01,meteohub,2013-09-16 09:11:00,
2013-09-16 11:27:00,73.9,65.7,29.96,WSW,248,0.0,3.0,75,0.00,,,0.01,meteohub,2013-09-16 09:27:00,
2013-09-16 11:42:00,74.1,64.6,29.97,SW,225,4.0,7.0,72,0.00,,,0.01,meteohub,2013-09-16 09:42:00,
2013-09-16 11:58:00,74.1,64.6,29.96,West,270,3.0,7.0,72,0.00,,,0.01,meteohub,2013-09-16 09:58:00,
2013-09-16 12:14:00,75.4,65.7,29.95,SW,225,4.0,7.0,71,0.00,,,0.01,meteohub,2013-09-16 10:14:00,
2013-09-16 12:29:00,75.4,65.5,29.94,SW,225,4.0,8.0,71,0.00,,,0.01,meteohub,2013-09-16 10:29:00,
2013-09-16 12:44:00,76.3,66.6,29.94,South,180,6.0,12.0,72,0.00,,,0.01,meteohub,2013-09-16 10:44:00,
2013-09-16 12:59:00,76.3,66.9,29.94,SSW,203,6.0,9.0,73,0.00,,,0.01,meteohub,2013-09-16 10:59:00,
2013-09-16 13:15:00,75.7,67.1,29.94,SSW,203,6.0,11.0,74,0.00,,,0.01,meteohub,2013-09-16 11:15:00,
2013-09-16 13:30:00,75.4,66.4,29.93,SSW,203,4.0,9.0,73,0.00,,,0.01,meteohub,2013-09-16 11:30:00,
2013-09-16 13:45:00,75.6,65.1,29.93,South,180,4.0,11.0,70,0.00,,,0.01,meteohub,2013-09-16 11:45:00,
2013-09-16 14:00:00,76.1,66.0,29.93,SW,225,4.0,7.0,71,0.00,,,0.01,meteohub,2013-09-16 12:00:00,
2013-09-16 14:16:00,76.1,67.6,29.92,SW,225,6.0,10.0,74,0.00,,,0.01,meteohub,2013-09-16 12:16:00,
2013-09-16 14:31:00,76.5,67.1,29.92,SW,225,7.0,12.0,73,0.00,,,0.01,meteohub,2013-09-16 12:31:00,
2013-09-16 14:46:00,77.2,68.5,29.91,SW,225,6.0,12.0,74,0.00,,,0.01,meteohub,2013-09-16 12:46:00,
2013-09-16 15:02:00,76.8,68.5,29.91,SSW,203,6.0,14.0,75,0.00,,,0.01,meteohub,2013-09-16 13:02:00,
2013-09-16 15:17:00,75.7,68.0,29.91,SSW,203,6.0,14.0,77,0.00,,,0.01,meteohub,2013-09-16 13:17:00,
2013-09-16 15:34:00,76.5,68.5,29.91,SSW,203,5.0,11.0,76,0.00,,,0.01,meteohub,2013-09-16 13:34:00,
2013-09-16 15:49:00,76.6,68.4,29.90,SW,225,6.0,9.0,75,0.00,,,0.01,meteohub,2013-09-16 13:49:00,
2013-09-16 16:04:00,77.5,68.4,29.89,WSW,248,6.0,11.0,73,0.00,,,0.01,meteohub,2013-09-16 14:04:00,
2013-09-16 16:19:00,77.5,68.5,29.89,SW,225,5.0,12.0,73,0.00,,,0.01,meteohub,2013-09-16 14:19:00,
2013-09-16 16:36:00,77.0,68.5,29.88,SSW,203,6.0,13.0,75,0.00,,,0.01,meteohub,2013-09-16 14:36:00,
2013-09-16 16:51:00,76.8,68.7,29.88,South,180,6.0,14.0,76,0.00,,,0.01,meteohub,2013-09-16 14:51:00,
2013-09-16 17:06:00,77.5,68.9,29.88,South,180,5.0,9.0,75,0.00,,,0.01,meteohub,2013-09-16 15:06:00,
2013-09-16 17:22:00,77.5,68.7,29.88,SSW,203,7.0,14.0,74,0.00,,,0.01,meteohub,2013-09-16 15:22:00,
2013-09-16 17:37:00,76.3,69.1,29.88,SSW,203,7.0,14.0,78,0.00,,,0.01,meteohub,2013-09-16 15:37:00,
2013-09-16 17:53:00,75.7,68.4,29.88,SW,225,7.0,13.0,78,0.00,,,0.01,meteohub,2013-09-16 15:53:00,
2013-09-16 18:08:00,74.8,69.1,29.87,SSW,203,4.0,10.0,82,0.00,,,0.01,meteohub,2013-09-16 16:08:00,
2013-09-16 18:24:00,74.8,69.3,29.86,South,180,6.0,12.0,83,0.00,,,0.01,meteohub,2013-09-16 16:24:00,
2013-09-16 18:39:00,74.7,69.1,29.86,SW,225,5.0,11.0,83,0.00,,,0.01,meteohub,2013-09-16 16:39:00,
2013-09-16 18:54:00,74.7,68.7,29.86,SW,225,8.0,11.0,82,0.00,,,0.01,meteohub,2013-09-16 16:54:00,
2013-09-16 19:10:00,74.7,68.7,29.86,SSW,203,5.0,8.0,82,0.00,,,0.01,meteohub,2013-09-16 17:10:00,
2013-09-16 19:25:00,74.5,68.5,29.86,SSW,203,6.0,11.0,81,0.00,,,0.01,meteohub,2013-09-16 17:25:00,
2013-09-16 19:40:00,74.1,68.4,29.86,SSW,203,5.0,11.0,82,0.00,,,0.01,meteohub,2013-09-16 17:40:00,
2013-09-16 19:55:00,73.6,68.7,29.86,SW,225,4.0,7.0,85,0.00,,,0.01,meteohub,2013-09-16 17:55:00,
2013-09-16 20:10:00,73.2,68.7,29.86,SW,225,4.0,7.0,86,0.00,,,0.01,meteohub,2013-09-16 18:10:00,
2013-09-16 20:26:00,73.0,68.9,29.86,SSW,203,3.0,6.0,87,0.00,,,0.01,meteohub,2013-09-16 18:26:00,
2013-09-16 20:41:00,72.9,69.1,29.86,SSW,203,2.0,5.0,88,0.00,,,0.01,meteohub,2013-09-16 18:41:00,
2013-09-16 20:56:00,72.7,68.5,29.87,SW,225,2.0,4.0,87,0.00,,,0.01,meteohub,2013-09-16 18:56:00,
2013-09-16 21:12:00,72.3,68.2,29.87,SSW,203,3.0,5.0,87,0.00,,,0.01,meteohub,2013-09-16 19:12:00,
2013-09-16 21:27:00,72.1,68.0,29.88,SW,225,2.0,5.0,87,0.00,,,0.01,meteohub,2013-09-16 19:27:00,
2013-09-16 21:43:00,72.0,68.0,29.88,SSW,203,3.0,5.0,87,0.00,,,0.01,meteohub,2013-09-16 19:43:00,
2013-09-16 21:58:00,71.8,68.0,29.88,SSW,203,4.0,6.0,88,0.00,,,0.01,meteohub,2013-09-16 19:58:00,
2013-09-16 22:13:00,71.4,67.6,29.88,SW,225,3.0,5.0,88,0.00,,,0.01,meteohub,2013-09-16 20:13:00,
2013-09-16 22:28:00,71.6,67.8,29.89,SW,225,5.0,8.0,88,0.00,,,0.01,meteohub,2013-09-16 20:28:00,
2013-09-16 22:44:00,71.6,67.8,29.89,SW,225,4.0,7.0,88,0.00,,,0.01,meteohub,2013-09-16 20:44:00,
2013-09-16 22:59:00,71.4,67.6,29.89,SW,225,4.0,8.0,88,0.00,,,0.01,meteohub,2013-09-16 20:59:00,
2013-09-16 23:16:00,70.9,67.5,29.89,SW,225,3.0,5.0,89,0.00,,,0.01,meteohub,2013-09-16 21:16:00,
2013-09-16 23:31:00,70.5,67.1,29.89,SW,225,3.0,5.0,89,0.00,,,0.01,meteohub,2013-09-16 21:31:00,
2013-09-16 23:47:00,70.3,67.3,29.89,SW,225,4.0,5.0,90,0.00,,,0.01,meteohub,2013-09-16 21:47:00,